Terminal Aerodrome Forecast
Issued by NWS

Home | Current Version | Previous Version | Text Only | Print | Product List | Glossary On
Versions: 1 2 3 4 5 6 7 8 9 10 11 12
000
FTUS45 KABQ 182300 RRA
TAFLVS
TAF
KLVS 182341Z 1900/1924 30015G25KT P6SM SCT080
     FM190200 26009KT P6SM SCT100
     FM191200 02011KT P6SM FEW070
     FM191600 06009KT P6SM SCT060
     FM192100 09010KT P6SM VCSH BKN060=

USA.gov is the U.S. government's official web portal to all federal, state and local government web resources and services.